Time;durP1;ratioP1;P1;durP2;ratioP2;P2;SDS_P1;SDS_P2;PMS_P1;PMS_P2;Temp;Humidity;BMP_temperature;BMP_pressure;BME280_temperature;BME280_humidity;BME280_pressure;Samples;Min_cycle;Max_cycle;Signal;HPM_P1;HPM_P2
2023/05/28 00:02:15;;;;;;;3.67;2.90;;;20.40;68.00;;;;;;4997262;28;20275;-68
2023/05/28 00:04:42;;;;;;;2.75;2.55;;;20.40;68.00;;;;;;4994049;28;20253;-68
2023/05/28 00:07:10;;;;;;;3.20;2.90;;;20.40;68.00;;;;;;4996762;28;20211;-68
2023/05/28 00:09:37;;;;;;;3.33;2.92;;;20.40;68.00;;;;;;5013428;28;20192;-68
2023/05/28 00:12:03;;;;;;;3.28;2.97;;;20.40;67.90;;;;;;4997299;28;20223;-68
2023/05/28 00:14:29;;;;;;;3.42;3.08;;;20.40;67.80;;;;;;4997019;28;20269;-69
2023/05/28 00:16:56;;;;;;;3.20;2.78;;;20.40;67.90;;;;;;4995212;28;20201;-69
2023/05/28 00:19:22;;;;;;;5.20;3.05;;;20.40;67.80;;;;;;5013099;28;20184;-68
2023/05/28 00:21:48;;;;;;;3.60;3.20;;;20.40;67.70;;;;;;4997016;28;20184;-68
2023/05/28 00:24:14;;;;;;;2.85;2.65;;;20.40;67.70;;;;;;4996977;28;20176;-68
2023/05/28 00:26:40;;;;;;;3.42;2.90;;;20.40;67.70;;;;;;4997025;28;20295;-68
2023/05/28 00:29:06;;;;;;;2.88;2.53;;;20.40;67.40;;;;;;4995734;28;20235;-68
2023/05/28 00:31:32;;;;;;;3.35;3.05;;;20.40;67.40;;;;;;5013502;28;20180;-68
2023/05/28 00:34:00;;;;;;;3.00;2.70;;;20.40;67.40;;;;;;4997000;28;20191;-68
2023/05/28 00:36:27;;;;;;;4.93;2.95;;;20.40;67.80;;;;;;4996403;28;20220;-68
2023/05/28 00:38:52;;;;;;;2.92;2.63;;;20.40;67.70;;;;;;4993742;28;20272;-68
2023/05/28 00:41:22;;;;;;;3.25;2.90;;;20.40;67.70;;;;;;4996653;28;20276;-68
2023/05/28 00:43:52;;;;;;;3.22;2.63;;;20.30;67.60;;;;;;5012684;28;20561;-69
2023/05/28 00:46:21;;;;;;;3.78;2.78;;;20.40;67.70;;;;;;5017263;28;20200;-68
2023/05/28 00:48:49;;;;;;;3.47;2.78;;;20.40;67.70;;;;;;5009274;28;20183;-69
2023/05/28 00:51:16;;;;;;;3.25;2.67;;;20.40;67.70;;;;;;4996696;28;20282;-68
2023/05/28 00:53:43;;;;;;;3.00;2.70;;;20.40;67.80;;;;;;4996676;28;20188;-68
2023/05/28 00:56:11;;;;;;;3.28;2.90;;;20.40;67.80;;;;;;4995866;28;20239;-68
2023/05/28 00:58:39;;;;;;;3.25;2.67;;;20.40;67.70;;;;;;5012358;28;20188;-68
2023/05/28 01:01:09;;;;;;;3.17;2.88;;;20.40;67.70;;;;;;4995960;28;20195;-68
2023/05/28 01:03:39;;;;;;;3.45;3.00;;;20.30;67.60;;;;;;4996295;28;20237;-68
2023/05/28 01:06:13;;;;;;;3.78;3.08;;;20.30;67.40;;;;;;4994959;28;20192;-68
2023/05/28 01:08:41;;;;;;;3.70;3.15;;;20.30;67.30;;;;;;5012407;28;20196;-69
2023/05/28 01:11:13;;;;;;;2.58;2.38;;;20.40;67.40;;;;;;4995381;28;20192;-68
2023/05/28 01:13:41;;;;;;;3.42;2.78;;;20.30;67.30;;;;;;5028770;28;20260;-68
2023/05/28 01:16:07;;;;;;;3.13;2.80;;;20.30;67.30;;;;;;5020424;28;20212;-68
2023/05/28 01:18:33;;;;;;;2.75;2.53;;;20.30;67.60;;;;;;4995912;28;20554;-68
2023/05/28 01:21:02;;;;;;;3.60;2.72;;;20.30;67.30;;;;;;4995787;28;20192;-68
2023/05/28 01:23:32;;;;;;;3.50;2.55;;;20.30;67.50;;;;;;4992430;28;20664;-68
2023/05/28 01:25:59;;;;;;;2.90;2.65;;;20.30;67.60;;;;;;4993429;28;20196;-68
2023/05/28 01:28:25;;;;;;;3.58;2.60;;;20.30;67.60;;;;;;5011820;28;20218;-68
2023/05/28 01:30:52;;;;;;;3.30;2.80;;;20.30;67.50;;;;;;4995643;28;20191;-68
2023/05/28 01:33:21;;;;;;;3.15;2.80;;;20.30;67.60;;;;;;5012187;28;20212;-68
2023/05/28 01:35:47;;;;;;;2.80;2.60;;;20.30;67.60;;;;;;5011654;28;20208;-68
2023/05/28 01:38:15;;;;;;;2.95;2.75;;;20.30;67.60;;;;;;5011216;28;20203;-66
2023/05/28 01:40:46;;;;;;;3.58;2.63;;;20.30;67.60;;;;;;4992233;28;20185;-67
2023/05/28 01:43:13;;;;;;;3.00;2.72;;;20.30;67.50;;;;;;4995252;28;20202;-67
2023/05/28 01:45:40;;;;;;;3.30;2.90;;;20.30;67.50;;;;;;5012050;28;20606;-68
2023/05/28 01:48:07;;;;;;;2.92;2.63;;;20.30;67.40;;;;;;5011303;28;20214;-68
2023/05/28 01:50:34;;;;;;;3.38;2.80;;;20.30;67.30;;;;;;4995676;28;20188;-67
2023/05/28 01:53:00;;;;;;;3.50;2.80;;;20.30;67.30;;;;;;4993544;28;20679;-67
2023/05/28 01:55:26;;;;;;;3.85;2.60;;;20.30;67.40;;;;;;4991856;28;20205;-67
2023/05/28 01:57:52;;;;;;;2.65;2.38;;;20.30;67.30;;;;;;5024461;28;20234;-67
2023/05/28 02:00:18;;;;;;;3.10;2.80;;;20.30;67.30;;;;;;5010517;28;20188;-67
2023/05/28 02:02:44;;;;;;;2.97;2.67;;;20.30;67.30;;;;;;5011662;28;20200;-68
2023/05/28 02:05:14;;;;;;;2.60;2.38;;;20.30;67.30;;;;;;5011732;28;20192;-67
2023/05/28 02:07:41;;;;;;;2.80;2.55;;;20.30;67.30;;;;;;4995281;28;20291;-68
2023/05/28 02:10:07;;;;;;;3.05;2.70;;;20.30;67.30;;;;;;4994959;28;20730;-67
2023/05/28 02:12:35;;;;;;;3.05;2.83;;;20.30;67.50;;;;;;4995136;28;20188;-68
2023/05/28 02:15:03;;;;;;;2.80;2.53;;;20.20;67.20;;;;;;5011219;28;20220;-67
2023/05/28 02:17:29;;;;;;;3.10;2.70;;;20.20;67.30;;;;;;4991436;28;20200;-68
2023/05/28 02:19:55;;;;;;;2.72;2.53;;;20.30;67.40;;;;;;5008188;28;20199;-68
2023/05/28 02:22:26;;;;;;;2.92;2.63;;;20.20;67.20;;;;;;4996065;28;20269;-68
2023/05/28 02:24:54;;;;;;;3.03;2.72;;;20.20;67.20;;;;;;5003395;28;20282;-67
2023/05/28 02:27:19;;;;;;;3.08;2.80;;;20.20;67.40;;;;;;4995181;28;20273;-68
2023/05/28 02:29:46;;;;;;;2.70;2.50;;;20.20;67.20;;;;;;4994886;28;20196;-67
2023/05/28 02:32:12;;;;;;;2.50;2.30;;;20.20;67.20;;;;;;5011161;28;20643;-67
2023/05/28 02:34:38;;;;;;;3.13;2.83;;;20.20;67.20;;;;;;5010998;28;20265;-68
2023/05/28 02:37:04;;;;;;;2.63;2.40;;;20.20;67.20;;;;;;4992390;28;20684;-67
2023/05/28 02:39:31;;;;;;;2.80;2.50;;;20.20;67.20;;;;;;4993863;28;20199;-68
2023/05/28 02:41:57;;;;;;;2.72;2.40;;;20.20;67.20;;;;;;4999659;28;20188;-67
2023/05/28 02:44:22;;;;;;;3.28;2.97;;;20.20;67.10;;;;;;4994831;28;20187;-68
2023/05/28 02:46:48;;;;;;;2.90;2.70;;;20.20;67.20;;;;;;4986490;28;20290;-68
2023/05/28 02:49:15;;;;;;;3.25;2.95;;;20.20;68.00;;;;;;5010735;28;20192;-69
2023/05/28 02:51:41;;;;;;;3.05;2.40;;;20.20;67.20;;;;;;5023028;28;20195;-67
2023/05/28 02:54:17;;;;;;;2.55;2.35;;;20.20;67.10;;;;;;5029365;28;20179;-68
2023/05/28 02:56:43;;;;;;;3.08;2.72;;;20.20;67.20;;;;;;5015147;28;20204;-67
2023/05/28 02:59:09;;;;;;;3.13;2.80;;;20.20;67.20;;;;;;5014757;28;20185;-67
2023/05/28 03:01:35;;;;;;;2.88;2.50;;;20.20;67.10;;;;;;4998135;28;20663;-66
2023/05/28 03:04:01;;;;;;;2.58;2.38;;;20.20;67.20;;;;;;5022973;28;20188;-66
2023/05/28 03:06:27;;;;;;;2.67;2.47;;;20.20;67.20;;;;;;5030970;28;20207;-66
2023/05/28 03:08:54;;;;;;;2.70;2.50;;;20.20;67.20;;;;;;5014433;28;20195;-67
2023/05/28 03:11:21;;;;;;;2.75;2.55;;;20.20;67.20;;;;;;4998462;28;20183;-68
2023/05/28 03:13:47;;;;;;;2.70;2.50;;;20.20;67.20;;;;;;5018494;28;20198;-68
2023/05/28 03:16:13;;;;;;;3.45;2.75;;;20.20;67.20;;;;;;5006277;28;20299;-67
2023/05/28 03:18:38;;;;;;;3.20;2.90;;;20.20;67.20;;;;;;5014229;28;20267;-67
2023/05/28 03:21:06;;;;;;;3.00;2.70;;;20.20;67.10;;;;;;5015019;28;20188;-67
2023/05/28 03:23:32;;;;;;;3.20;2.90;;;20.20;67.10;;;;;;5014734;28;20602;-67
2023/05/28 03:26:13;;;;;;;3.70;2.65;;;20.20;67.20;;;;;;5014541;28;20188;-68
2023/05/28 03:28:39;;;;;;;2.95;2.75;;;20.20;67.20;;;;;;4998112;28;20242;-68
2023/05/28 03:31:29;;;;;;;2.67;2.40;;;20.20;67.20;;;;;;5014401;28;20195;-68
2023/05/28 03:33:56;;;;;;;2.95;2.72;;;20.20;67.20;;;;;;5006258;28;20278;-68
2023/05/28 03:36:24;;;;;;;3.63;2.72;;;20.20;67.20;;;;;;5018611;28;20315;-68
2023/05/28 03:38:50;;;;;;;2.78;2.58;;;20.20;67.20;;;;;;4994632;28;20195;-68
2023/05/28 03:41:16;;;;;;;2.83;2.63;;;20.20;67.20;;;;;;5004879;28;20196;-68
2023/05/28 03:43:43;;;;;;;3.22;2.60;;;20.10;67.00;;;;;;4994693;28;20211;-67
2023/05/28 03:46:09;;;;;;;2.55;2.35;;;20.20;67.20;;;;;;4995731;28;20228;-68
2023/05/28 03:48:36;;;;;;;2.60;2.40;;;20.20;67.20;;;;;;5022002;28;20192;-67
2023/05/28 03:51:04;;;;;;;2.72;2.53;;;20.20;67.10;;;;;;5005717;28;20211;-67
2023/05/28 03:53:30;;;;;;;3.65;2.60;;;20.20;67.10;;;;;;5020221;28;20243;-67
2023/05/28 03:55:55;;;;;;;2.78;2.50;;;20.20;67.20;;;;;;5009920;28;20219;-68
2023/05/28 03:58:23;;;;;;;2.83;2.55;;;20.20;67.10;;;;;;5013632;28;20247;-68
2023/05/28 04:00:48;;;;;;;3.00;2.70;;;20.10;67.00;;;;;;5013608;28;20180;-68
2023/05/28 04:03:14;;;;;;;4.18;2.63;;;20.20;67.20;;;;;;5012455;28;20227;-68
2023/05/28 04:05:42;;;;;;;3.10;2.90;;;20.20;67.20;;;;;;5013829;28;20192;-68
2023/05/28 04:08:08;;;;;;;3.05;2.70;;;20.10;67.00;;;;;;5013565;28;20211;-67
2023/05/28 04:10:35;;;;;;;3.28;2.97;;;20.10;67.00;;;;;;5021616;28;20184;-68
2023/05/28 04:13:00;;;;;;;3.28;2.83;;;20.10;67.00;;;;;;5013427;28;20253;-68
2023/05/28 04:15:26;;;;;;;2.72;2.50;;;20.20;67.10;;;;;;5018143;28;20221;-68
2023/05/28 04:17:52;;;;;;;2.55;2.35;;;20.20;67.20;;;;;;4995418;28;20547;-68
2023/05/28 04:20:18;;;;;;;2.60;2.40;;;20.20;67.00;;;;;;5012397;28;20192;-68
2023/05/28 04:22:45;;;;;;;2.97;2.67;;;20.10;67.00;;;;;;5015944;28;20181;-68
2023/05/28 04:25:10;;;;;;;2.40;2.20;;;20.10;67.00;;;;;;5011169;28;20218;-67
2023/05/28 04:27:36;;;;;;;2.92;2.67;;;20.10;66.90;;;;;;5029634;28;20211;-68
2023/05/28 04:30:03;;;;;;;2.90;2.60;;;20.10;67.00;;;;;;4996767;28;20698;-68
2023/05/28 04:32:31;;;;;;;3.13;2.83;;;20.10;67.00;;;;;;5012994;28;20284;-67
2023/05/28 04:34:57;;;;;;;2.90;2.55;;;20.10;67.00;;;;;;5012999;28;20219;-68
2023/05/28 04:37:24;;;;;;;3.08;2.78;;;20.10;67.00;;;;;;4996242;28;20204;-67
2023/05/28 04:39:51;;;;;;;3.33;2.80;;;20.10;67.00;;;;;;5014323;28;20195;-68
2023/05/28 04:42:18;;;;;;;2.85;2.55;;;20.10;67.00;;;;;;5003734;28;20204;-67
2023/05/28 04:44:44;;;;;;;3.05;2.42;;;20.10;67.00;;;;;;5012798;28;20185;-67
2023/05/28 04:47:11;;;;;;;2.70;2.50;;;20.10;67.00;;;;;;5019815;28;20213;-66
2023/05/28 04:49:39;;;;;;;2.33;2.20;;;20.10;67.00;;;;;;4993144;28;20235;-67
2023/05/28 04:52:05;;;;;;;3.38;2.35;;;20.10;67.00;;;;;;5001713;28;20197;-66
2023/05/28 04:54:31;;;;;;;4.32;2.70;;;20.10;67.00;;;;;;5012644;28;20188;-68
2023/05/28 04:56:57;;;;;;;3.40;2.60;;;20.10;67.80;;;;;;5020842;28;20253;-68
2023/05/28 04:59:22;;;;;;;2.58;2.30;;;20.10;67.00;;;;;;5017862;28;20284;-67
2023/05/28 05:01:48;;;;;;;2.67;2.47;;;20.10;67.00;;;;;;5007272;28;20184;-67
2023/05/28 05:04:14;;;;;;;3.10;2.90;;;20.10;66.90;;;;;;5020762;28;20188;-67
2023/05/28 05:06:41;;;;;;;3.03;2.83;;;20.10;67.00;;;;;;5012474;28;20208;-68
2023/05/28 05:09:08;;;;;;;3.80;3.13;;;20.10;67.00;;;;;;5028481;28;20216;-67
2023/05/28 05:11:34;;;;;;;3.20;2.90;;;20.10;66.90;;;;;;5012515;28;20218;-68
2023/05/28 05:14:01;;;;;;;3.03;2.70;;;20.10;66.80;;;;;;5011966;28;20192;-67
2023/05/28 05:16:27;;;;;;;2.60;2.40;;;20.10;67.00;;;;;;5012313;28;20203;-68
2023/05/28 05:18:52;;;;;;;2.60;2.40;;;20.10;66.90;;;;;;5011986;28;20208;-66
2023/05/28 05:21:18;;;;;;;3.15;2.85;;;20.10;66.80;;;;;;4996089;28;20531;-67
2023/05/28 05:23:44;;;;;;;3.25;2.80;;;20.10;66.90;;;;;;5012463;28;20243;-67
2023/05/28 05:26:12;;;;;;;2.72;2.53;;;20.10;66.90;;;;;;5011860;28;20194;-67
2023/05/28 05:28:39;;;;;;;3.35;2.70;;;20.10;66.90;;;;;;4992371;28;20220;-67
2023/05/28 05:31:05;;;;;;;3.00;2.40;;;20.10;66.90;;;;;;4992572;28;20611;-67
2023/05/28 05:33:31;;;;;;;2.65;2.45;;;20.10;67.00;;;;;;4995923;28;20180;-68
2023/05/28 05:36:26;;;;;;;3.00;2.80;;;20.10;67.00;;;;;;5019487;28;20243;-67
2023/05/28 05:39:10;;;;;;;2.70;2.47;;;20.10;67.00;;;;;;5003710;28;20208;-67
2023/05/28 05:42:08;;;;;;;3.55;2.60;;;20.10;66.90;;;;;;4989662;28;20202;-67
2023/05/28 05:44:41;;;;;;;3.20;2.90;;;20.10;66.80;;;;;;5020609;28;20741;-68
2023/05/28 05:47:07;;;;;;;2.97;2.67;;;20.10;66.80;;;;;;5011208;28;20204;-67
2023/05/28 05:49:33;;;;;;;2.70;2.50;;;20.10;66.90;;;;;;4995762;28;20187;-67
2023/05/28 05:51:59;;;;;;;2.80;2.60;;;20.10;66.80;;;;;;5028084;28;20180;-68
2023/05/28 05:54:26;;;;;;;2.83;2.63;;;20.10;66.90;;;;;;5010924;28;20244;-69
2023/05/28 05:56:54;;;;;;;2.60;2.40;;;20.10;66.90;;;;;;4991317;28;20211;-69
2023/05/28 05:59:21;;;;;;;3.05;2.67;;;20.10;66.90;;;;;;5002283;28;20191;-68
2023/05/28 06:01:48;;;;;;;3.58;2.97;;;20.10;66.90;;;;;;5011683;28;20187;-67
2023/05/28 06:04:14;;;;;;;2.97;2.70;;;20.10;67.00;;;;;;5011437;28;20196;-68
2023/05/28 06:07:06;;;;;;;3.60;2.72;;;20.10;67.00;;;;;;4998543;28;20219;-69
2023/05/28 06:09:48;;;;;;;2.63;2.42;;;20.10;66.90;;;;;;4991902;28;20247;-68
2023/05/28 06:12:18;;;;;;;2.85;2.65;;;20.10;66.70;;;;;;4993125;28;20196;-68
2023/05/28 06:14:44;;;;;;;3.00;2.70;;;20.10;66.80;;;;;;5027712;28;20215;-68
2023/05/28 06:17:10;;;;;;;3.55;2.90;;;20.10;66.60;;;;;;5011280;28;20200;-67
2023/05/28 06:19:36;;;;;;;3.63;2.70;;;20.10;66.70;;;;;;5011085;28;20202;-67
2023/05/28 06:22:03;;;;;;;2.85;2.63;;;20.10;66.80;;;;;;4994968;28;20226;-68
2023/05/28 06:24:29;;;;;;;2.80;2.60;;;20.10;66.80;;;;;;4994865;28;20263;-68
2023/05/28 06:26:55;;;;;;;2.75;2.50;;;20.10;66.70;;;;;;4994182;28;20208;-67
2023/05/28 06:29:22;;;;;;;3.78;2.90;;;20.10;66.80;;;;;;5010870;28;20188;-68
2023/05/28 06:31:48;;;;;;;2.70;2.50;;;20.10;66.80;;;;;;5010930;28;20670;-67
2023/05/28 06:34:15;;;;;;;2.80;2.60;;;20.10;66.70;;;;;;5011320;28;20191;-68
2023/05/28 06:36:41;;;;;;;3.17;2.58;;;20.10;66.70;;;;;;4990959;28;20216;-67
2023/05/28 06:39:08;;;;;;;2.63;2.42;;;20.10;66.80;;;;;;5007252;28;20192;-68
2023/05/28 06:41:34;;;;;;;2.80;2.58;;;20.20;67.00;;;;;;5019149;28;20191;-68
2023/05/28 06:44:02;;;;;;;2.65;2.45;;;20.20;67.10;;;;;;5010644;28;20271;-69
2023/05/28 06:46:45;;;;;;;2.80;2.60;;;20.20;67.00;;;;;;5009340;28;20207;-68
2023/05/28 06:49:13;;;;;;;3.33;2.40;;;20.20;67.20;;;;;;4991068;28;20687;-66
2023/05/28 06:51:39;;;;;;;3.80;2.50;;;20.20;67.10;;;;;;5003584;28;20275;-68
2023/05/28 06:54:05;;;;;;;2.60;2.35;;;20.20;67.00;;;;;;5025358;28;20331;-68
2023/05/28 06:56:32;;;;;;;2.85;2.65;;;20.20;67.00;;;;;;5023871;28;20262;-67
2023/05/28 06:59:17;;;;;;;3.00;2.70;;;20.20;67.00;;;;;;5010801;28;20265;-68
2023/05/28 07:02:00;;;;;;;3.20;2.80;;;20.30;67.00;;;;;;4991312;28;20197;-68
2023/05/28 07:04:45;;;;;;;2.80;2.60;;;20.30;66.70;;;;;;5004409;28;20195;-68
2023/05/28 07:07:15;;;;;;;3.08;2.72;;;20.30;67.80;;;;;;4994930;28;20208;-68
2023/05/28 07:09:41;;;;;;;3.65;2.72;;;20.30;67.00;;;;;;4994667;28;20746;-68
2023/05/28 07:12:07;;;;;;;2.55;2.33;;;20.30;67.30;;;;;;5010841;28;20279;-68
2023/05/28 07:14:36;;;;;;;2.58;2.38;;;20.30;67.30;;;;;;5010890;28;20188;-67
2023/05/28 07:17:02;;;;;;;5.43;2.95;;;20.30;67.30;;;;;;4994669;28;20208;-68
2023/05/28 07:19:30;;;;;;;3.22;2.67;;;20.30;67.30;;;;;;4993598;28;20185;-67
2023/05/28 07:21:56;;;;;;;3.40;2.60;;;20.30;67.50;;;;;;4994504;28;20282;-67
2023/05/28 07:24:22;;;;;;;4.68;2.83;;;20.30;67.20;;;;;;4992576;28;20181;-67
2023/05/28 07:26:48;;;;;;;3.45;2.60;;;20.40;67.70;;;;;;5010913;28;20234;-67
2023/05/28 07:29:18;;;;;;;6.32;2.83;;;20.40;67.40;;;;;;4994127;28;20192;-67
2023/05/28 07:31:44;;;;;;;2.78;2.58;;;20.40;67.40;;;;;;4991040;28;20217;-67
2023/05/28 07:34:10;;;;;;;3.30;2.90;;;20.40;67.40;;;;;;4990817;28;20282;-67
2023/05/28 07:36:38;;;;;;;2.80;2.50;;;20.40;67.90;;;;;;4982686;28;20213;-68
2023/05/28 07:39:04;;;;;;;2.75;2.55;;;20.40;67.40;;;;;;5009653;28;20187;-68
2023/05/28 07:41:31;;;;;;;3.97;2.65;;;20.40;67.70;;;;;;5030350;28;20206;-68
2023/05/28 07:44:07;;;;;;;3.22;2.78;;;20.40;67.40;;;;;;5014178;28;20187;-68
2023/05/28 07:46:33;;;;;;;6.05;3.47;;;20.40;67.20;;;;;;5013873;28;20281;-67
2023/05/28 07:49:13;;;;;;;10.05;3.10;;;20.40;67.00;;;;;;4994346;28;20676;-68
2023/05/28 07:51:44;;;;;;;4.78;2.85;;;20.40;67.10;;;;;;5013951;28;20184;-68
2023/05/28 07:54:15;;;;;;;5.57;2.78;;;20.40;66.90;;;;;;5013807;28;20184;-68
2023/05/28 07:56:41;;;;;;;6.15;3.38;;;20.40;67.00;;;;;;4994007;28;20208;-68
2023/05/28 07:59:11;;;;;;;7.82;3.25;;;20.40;66.70;;;;;;5010170;28;20240;-67
2023/05/28 08:01:37;;;;;;;8.95;3.25;;;20.40;66.40;;;;;;5006166;28;20192;-68
2023/05/28 08:04:05;;;;;;;9.25;3.25;;;20.50;66.40;;;;;;4994098;28;20189;-68
2023/05/28 08:06:35;;;;;;;14.88;3.97;;;20.50;66.30;;;;;;4996853;28;20231;-68
2023/05/28 08:09:03;;;;;;;6.20;3.78;;;20.50;66.00;;;;;;5013669;28;20192;-68
2023/05/28 08:11:30;;;;;;;8.43;3.70;;;20.50;65.80;;;;;;4997184;28;20188;-68
2023/05/28 08:13:56;;;;;;;7.60;3.60;;;20.50;65.30;;;;;;5013465;28;20235;-67
2023/05/28 08:16:23;;;;;;;5.50;3.38;;;20.50;65.10;;;;;;4994665;28;20216;-68
2023/05/28 08:19:07;;;;;;;6.85;4.05;;;20.50;65.00;;;;;;5007812;28;20203;-68
2023/05/28 08:21:35;;;;;;;9.13;4.20;;;20.60;64.70;;;;;;4988334;28;20191;-68
2023/05/28 08:24:02;;;;;;;9.60;3.90;;;20.60;64.70;;;;;;4997138;28;20219;-68
2023/05/28 08:26:30;;;;;;;7.90;3.88;;;20.60;64.30;;;;;;4997407;28;20208;-69
2023/05/28 08:28:56;;;;;;;8.32;3.88;;;20.60;64.40;;;;;;4993765;28;20219;-68
2023/05/28 08:31:24;;;;;;;8.48;3.97;;;20.60;64.20;;;;;;4995300;28;20219;-68
2023/05/28 08:34:05;;;;;;;10.23;4.25;;;20.60;64.20;;;;;;4999004;28;20286;-67
2023/05/28 08:36:32;;;;;;;9.77;4.15;;;20.60;64.30;;;;;;5012504;28;20220;-68
2023/05/28 08:38:58;;;;;;;6.93;3.58;;;20.60;64.20;;;;;;4996801;28;20242;-68
2023/05/28 08:41:26;;;;;;;11.63;4.28;;;20.70;64.20;;;;;;4996731;28;20191;-68
2023/05/28 08:43:52;;;;;;;7.50;3.90;;;20.60;64.10;;;;;;4993641;28;20181;-68
2023/05/28 08:46:19;;;;;;;11.30;3.97;;;20.70;64.10;;;;;;5009983;28;20199;-67
2023/05/28 08:49:13;;;;;;;6.85;3.75;;;20.70;64.00;;;;;;5005388;28;20223;-69
2023/05/28 08:51:42;;;;;;;7.57;3.70;;;20.70;63.80;;;;;;5004707;28;20180;-68
2023/05/28 08:54:08;;;;;;;6.57;3.70;;;20.70;63.70;;;;;;4996480;28;20187;-68
2023/05/28 08:56:35;;;;;;;8.77;4.05;;;20.70;63.80;;;;;;5019921;28;20219;-67
2023/05/28 08:59:03;;;;;;;7.22;3.47;;;20.70;63.80;;;;;;5012521;28;20222;-67
2023/05/28 09:01:30;;;;;;;7.05;3.47;;;20.70;63.60;;;;;;4996233;28;20192;-68
2023/05/28 09:04:07;;;;;;;8.23;4.10;;;20.70;63.30;;;;;;4998039;28;20187;-68
2023/05/28 09:06:40;;;;;;;7.10;4.07;;;20.70;63.40;;;;;;5012049;28;20216;-68
2023/05/28 09:09:10;;;;;;;6.50;4.85;;;20.70;63.40;;;;;;5021728;28;20200;-70
2023/05/28 09:11:44;;;;;;;8.40;4.00;;;20.70;63.50;;;;;;5020035;28;20278;-68
2023/05/28 09:14:13;;;;;;;8.50;3.75;;;20.70;63.40;;;;;;5004427;28;20196;-68
2023/05/28 09:16:42;;;;;;;7.30;3.58;;;20.70;63.20;;;;;;5011964;28;20250;-68
2023/05/28 09:19:15;;;;;;;7.45;4.00;;;20.70;63.00;;;;;;4996416;28;20180;-66
2023/05/28 09:21:57;;;;;;;8.00;3.80;;;20.70;63.50;;;;;;4996216;28;20176;-68
2023/05/28 09:24:31;;;;;;;9.63;4.07;;;20.70;63.10;;;;;;5012479;28;20715;-67
2023/05/28 09:27:34;;;;;;;8.25;3.70;;;20.70;62.60;;;;;;5023898;28;20262;-68
2023/05/28 09:30:08;;;;;;;8.27;3.47;;;20.80;62.90;;;;;;5006224;28;20192;-67
2023/05/28 09:32:35;;;;;;;9.10;4.00;;;20.70;62.80;;;;;;4994455;28;20204;-68
2023/05/28 09:35:06;;;;;;;9.48;3.90;;;20.80;62.80;;;;;;4992233;28;20232;-68
2023/05/28 09:37:35;;;;;;;7.93;3.55;;;20.70;62.70;;;;;;4994215;28;20593;-68
2023/05/28 09:40:10;;;;;;;11.88;3.70;;;20.80;62.90;;;;;;4995778;28;20184;-68
2023/05/28 09:42:41;;;;;;;19.20;4.30;;;20.70;62.90;;;;;;4995842;28;20237;-68
2023/05/28 09:45:09;;;;;;;9.05;3.58;;;20.80;62.90;;;;;;4992258;28;20197;-68
2023/05/28 09:47:45;;;;;;;5.88;3.35;;;20.80;63.20;;;;;;4993952;28;20211;-68
2023/05/28 09:50:12;;;;;;;6.90;3.97;;;20.80;63.20;;;;;;5011906;28;20191;-68
2023/05/28 09:52:47;;;;;;;8.18;3.45;;;20.80;63.20;;;;;;4995108;28;20814;-68
2023/05/28 09:55:17;;;;;;;7.25;3.22;;;20.80;63.30;;;;;;5011692;28;20215;-68
2023/05/28 09:58:05;;;;;;;7.43;3.75;;;20.80;63.30;;;;;;5011441;28;20204;-67
2023/05/28 10:00:52;;;;;;;6.97;3.25;;;20.80;63.40;;;;;;4994614;28;20559;-68
2023/05/28 10:03:57;;;;;;;6.22;3.53;;;20.80;63.50;;;;;;5011632;28;20184;-68
2023/05/28 10:06:25;;;;;;;10.32;3.80;;;20.80;63.70;;;;;;5024671;28;20660;-67
2023/05/28 10:08:54;;;;;;;6.10;3.70;;;20.80;63.70;;;;;;4995005;28;20192;-68
2023/05/28 10:11:26;;;;;;;8.27;3.90;;;20.80;63.80;;;;;;4991534;28;20189;-67
2023/05/28 10:13:54;;;;;;;7.88;3.20;;;20.80;63.40;;;;;;5004190;28;20561;-68
2023/05/28 10:16:21;;;;;;;6.70;3.72;;;20.80;63.30;;;;;;5011672;28;20204;-67
2023/05/28 10:18:48;;;;;;;5.68;3.45;;;20.80;63.60;;;;;;5016120;28;20253;-68
2023/05/28 10:21:14;;;;;;;4.93;3.20;;;20.80;63.80;;;;;;5016552;28;20280;-68
2023/05/28 10:23:42;;;;;;;7.65;3.53;;;20.80;63.90;;;;;;4994390;28;20204;-68
2023/05/28 10:26:09;;;;;;;5.88;3.15;;;20.80;63.80;;;;;;5013106;28;20208;-67
2023/05/28 10:28:35;;;;;;;8.25;3.95;;;20.80;64.00;;;;;;5001222;28;20192;-68
2023/05/28 10:31:07;;;;;;;4.45;2.90;;;20.80;64.10;;;;;;5019824;28;20195;-68
2023/05/28 10:33:43;;;;;;;4.55;3.15;;;20.80;63.90;;;;;;5011481;28;20278;-68
2023/05/28 10:36:14;;;;;;;4.82;3.35;;;20.80;64.00;;;;;;5010873;28;20230;-68
2023/05/28 10:38:58;;;;;;;4.22;3.20;;;20.80;64.20;;;;;;4993483;28;20199;-68
2023/05/28 10:41:25;;;;;;;8.57;3.60;;;20.80;64.20;;;;;;5011470;28;20187;-68
2023/05/28 10:43:51;;;;;;;5.45;3.40;;;20.80;64.00;;;;;;5011120;28;20276;-68
2023/05/28 10:46:17;;;;;;;6.10;3.13;;;20.80;64.20;;;;;;4995033;28;20196;-68
2023/05/28 10:49:02;;;;;;;4.45;3.05;;;20.90;64.40;;;;;;5011142;28;20223;-68
2023/05/28 10:52:00;;;;;;;5.97;3.30;;;20.90;64.20;;;;;;4994570;28;20191;-67
2023/05/28 10:54:29;;;;;;;4.32;3.05;;;20.90;64.50;;;;;;4994975;28;20195;-67
2023/05/28 10:57:18;;;;;;;5.47;3.15;;;20.80;64.40;;;;;;4994594;28;20234;-68
2023/05/28 11:00:13;;;;;;;4.30;3.20;;;20.80;64.50;;;;;;5010860;28;20181;-68
2023/05/28 11:02:43;;;;;;;3.45;3.13;;;20.80;64.40;;;;;;4994551;28;20668;-66
2023/05/28 11:05:10;;;;;;;4.68;3.22;;;20.80;64.40;;;;;;5011340;28;20227;-68
2023/05/28 11:07:41;;;;;;;5.80;3.28;;;20.90;64.10;;;;;;5027035;28;20208;-67
2023/05/28 11:10:10;;;;;;;7.57;3.40;;;20.90;64.30;;;;;;5010918;28;20192;-68
2023/05/28 11:12:40;;;;;;;5.55;2.63;;;20.80;64.30;;;;;;4995784;28;20227;-68
2023/05/28 11:15:12;;;;;;;5.13;3.17;;;20.90;64.40;;;;;;4994991;28;20213;-68
2023/05/28 11:17:39;;;;;;;4.78;2.63;;;20.90;64.30;;;;;;5014443;28;20270;-67
2023/05/28 11:20:19;;;;;;;5.57;2.60;;;20.90;64.50;;;;;;5014505;28;20184;-68
2023/05/28 11:22:46;;;;;;;4.28;2.97;;;20.80;64.50;;;;;;4998092;28;20250;-68
2023/05/28 11:25:12;;;;;;;3.40;3.00;;;20.90;64.40;;;;;;5014396;28;20188;-68
2023/05/28 11:27:40;;;;;;;4.60;3.17;;;20.90;64.70;;;;;;5030700;28;20590;-67
2023/05/28 11:30:11;;;;;;;4.57;3.10;;;20.80;64.50;;;;;;4994777;28;20199;-68
2023/05/28 11:32:39;;;;;;;4.13;2.80;;;20.90;64.80;;;;;;5012840;28;20193;-68
2023/05/28 11:35:05;;;;;;;4.63;2.95;;;20.90;64.90;;;;;;5025210;28;20267;-68
2023/05/28 11:37:34;;;;;;;3.65;3.00;;;20.90;65.00;;;;;;5011669;28;20203;-68
2023/05/28 11:40:11;;;;;;;3.67;2.67;;;20.90;64.90;;;;;;5014000;28;20211;-68
2023/05/28 11:42:40;;;;;;;3.70;2.88;;;20.90;64.60;;;;;;4997667;28;20211;-68
2023/05/28 11:45:07;;;;;;;5.05;3.00;;;20.90;64.50;;;;;;4998036;28;20196;-68
2023/05/28 11:47:35;;;;;;;5.57;3.50;;;20.90;64.90;;;;;;5013973;28;20646;-67
2023/05/28 11:50:14;;;;;;;4.07;2.72;;;20.90;64.60;;;;;;5013941;28;20196;-67
2023/05/28 11:52:42;;;;;;;5.28;2.90;;;20.90;64.90;;;;;;5013855;28;20709;-68
2023/05/28 11:55:09;;;;;;;5.05;2.72;;;20.90;64.80;;;;;;4997369;28;20219;-67
2023/05/28 11:57:39;;;;;;;4.93;3.00;;;20.90;64.70;;;;;;4997227;28;20239;-67
2023/05/28 12:00:15;;;;;;;3.17;2.65;;;20.90;64.90;;;;;;4997341;28;20627;-68
2023/05/28 12:02:49;;;;;;;6.05;2.75;;;20.90;64.90;;;;;;4997198;28;20195;-68
2023/05/28 12:05:17;;;;;;;4.45;2.83;;;20.90;65.00;;;;;;5013729;28;20565;-67
2023/05/28 12:07:53;;;;;;;2.55;2.28;;;20.90;65.10;;;;;;4997031;28;20207;-68
2023/05/28 12:10:26;;;;;;;3.47;2.95;;;20.90;65.10;;;;;;4994008;28;20192;-68
2023/05/28 12:12:56;;;;;;;3.17;2.72;;;20.90;65.10;;;;;;5001812;28;20192;-68
2023/05/28 12:15:29;;;;;;;3.45;2.78;;;20.90;65.00;;;;;;5009354;28;20757;-68
2023/05/28 12:17:58;;;;;;;3.58;2.53;;;20.90;64.90;;;;;;4989666;28;20258;-67
2023/05/28 12:20:24;;;;;;;5.70;3.25;;;20.90;64.90;;;;;;5013634;28;20188;-66
2023/05/28 12:23:21;;;;;;;3.25;2.65;;;20.90;65.00;;;;;;5013238;28;20184;-68
2023/05/28 12:25:49;;;;;;;3.65;2.50;;;20.90;65.00;;;;;;5020633;28;20660;-68
2023/05/28 12:28:18;;;;;;;3.70;2.58;;;20.90;65.10;;;;;;5029604;28;20216;-67
2023/05/28 12:30:49;;;;;;;4.40;2.53;;;20.90;65.10;;;;;;5013007;28;20192;-68
2023/05/28 12:33:14;;;;;;;3.20;2.72;;;20.90;65.10;;;;;;5013222;28;20196;-65
2023/05/28 12:35:41;;;;;;;4.18;2.78;;;20.90;65.20;;;;;;5011260;28;20211;-68
2023/05/28 12:38:08;;;;;;;4.85;2.75;;;20.90;65.20;;;;;;4998363;28;20200;-68
2023/05/28 12:40:33;;;;;;;2.90;2.63;;;20.90;65.40;;;;;;5012852;28;20678;-67
2023/05/28 12:42:59;;;;;;;3.05;2.75;;;20.90;65.10;;;;;;4996765;28;20180;-67
2023/05/28 12:45:25;;;;;;;3.67;2.75;;;20.90;65.30;;;;;;5013017;28;20612;-68
2023/05/28 12:47:51;;;;;;;5.35;2.88;;;21.00;65.50;;;;;;4996071;28;20215;-68
2023/05/28 12:50:17;;;;;;;3.13;2.65;;;21.00;65.20;;;;;;5014717;28;20201;-68
2023/05/28 12:52:43;;;;;;;3.47;2.67;;;20.90;65.10;;;;;;5003129;28;20316;-68
2023/05/28 12:55:09;;;;;;;3.25;2.58;;;21.00;65.00;;;;;;5007751;28;20209;-68
2023/05/28 12:57:35;;;;;;;3.08;2.65;;;21.00;65.30;;;;;;5001690;28;20212;-68